createdAt,value
2022-08-09T00:00:35.337Z,22.10
2022-08-09T00:04:03.473Z,22.10
2022-08-09T00:06:17.559Z,22.10
2022-08-09T00:08:48.582Z,22.00
2022-08-09T00:11:25.016Z,22.00
2022-08-09T00:13:55.698Z,21.90
2022-08-09T00:16:26.164Z,21.90
2022-08-09T00:19:09.524Z,21.90
2022-08-09T00:21:56.178Z,21.90
2022-08-09T00:24:27.245Z,21.80
2022-08-09T00:26:55.455Z,21.80
2022-08-09T00:29:39.875Z,21.80
2022-08-09T00:32:25.493Z,21.80
2022-08-09T00:34:55.308Z,21.70
2022-08-09T00:37:24.675Z,21.70
2022-08-09T00:40:12.837Z,21.70
2022-08-09T00:44:15.135Z,21.70
2022-08-09T00:45:27.068Z,21.70
2022-08-09T00:47:55.351Z,21.60
2022-08-09T00:50:26.326Z,21.60
2022-08-09T00:52:54.977Z,21.50
2022-08-09T00:56:03.287Z,21.50
2022-08-09T00:58:22.253Z,21.40
2022-08-09T01:00:55.371Z,21.40
2022-08-09T01:03:40.857Z,21.40
2022-08-09T01:06:21.559Z,21.30
2022-08-09T01:08:55.875Z,21.30
2022-08-09T01:11:28.881Z,21.30
2022-08-09T01:14:10.024Z,21.20
2022-08-09T01:16:47.285Z,21.20
2022-08-09T01:19:51.858Z,21.10
2022-08-09T01:22:51.253Z,21.10
2022-08-09T01:25:30.273Z,21.10
2022-08-09T01:28:03.549Z,21.00
2022-08-09T01:30:51.991Z,21.00
2022-08-09T01:33:25.651Z,20.90
2022-08-09T01:36:08.820Z,20.80
2022-08-09T01:38:38.689Z,20.80
2022-08-09T01:41:18.519Z,20.80
2022-08-09T01:44:00.565Z,20.70
2022-08-09T01:46:33.379Z,20.70
2022-08-09T01:49:10.494Z,20.60
2022-08-09T01:51:53.742Z,20.60
2022-08-09T01:54:46.367Z,20.60
2022-08-09T01:57:23.244Z,20.60
2022-08-09T02:00:00.325Z,20.60
2022-08-09T02:02:33.100Z,20.60
2022-08-09T02:05:05.855Z,20.60
2022-08-09T02:08:40.946Z,20.60
2022-08-09T02:10:51.094Z,20.50
2022-08-09T02:13:26.094Z,20.50
2022-08-09T02:16:07.587Z,20.50
2022-08-09T02:18:42.779Z,20.40
2022-08-09T02:21:17.053Z,20.40
2022-08-09T02:24:01.885Z,20.40
2022-08-09T02:26:36.046Z,20.40
2022-08-09T02:29:21.878Z,20.40
2022-08-09T02:31:50.926Z,20.40
2022-08-09T02:34:40.851Z,20.40
2022-08-09T02:37:15.113Z,20.30
2022-08-09T02:39:49.926Z,20.30
2022-08-09T02:42:27.902Z,20.30
2022-08-09T02:45:04.586Z,20.30
2022-08-09T02:47:57.642Z,20.20
2022-08-09T02:50:29.093Z,20.20
2022-08-09T02:53:07.123Z,20.20
2022-08-09T02:55:46.385Z,20.20
2022-08-09T02:58:35.966Z,20.20
2022-08-09T03:01:15.194Z,20.10
2022-08-09T03:04:17.011Z,20.10
2022-08-09T03:06:41.453Z,20.10
2022-08-09T03:09:10.243Z,20.10
2022-08-09T03:12:05.944Z,20.20
2022-08-09T03:14:31.892Z,20.10
2022-08-09T03:17:05.489Z,20.10
2022-08-09T03:19:57.933Z,20.00
2022-08-09T03:22:25.750Z,20.00
2022-08-09T03:25:06.415Z,19.90
2022-08-09T03:27:50.898Z,19.90
2022-08-09T03:30:29.814Z,19.90
2022-08-09T03:33:13.097Z,19.90
2022-08-09T03:36:12.878Z,19.80
2022-08-09T03:38:44.573Z,19.80
2022-08-09T03:41:14.796Z,19.80
2022-08-09T03:44:02.965Z,19.80
2022-08-09T03:46:36.546Z,19.70
2022-08-09T03:49:08.862Z,19.70
2022-08-09T03:51:57.277Z,19.60
2022-08-09T03:54:31.780Z,19.60
2022-08-09T03:57:18.007Z,19.60
2022-08-09T03:59:55.456Z,19.60
2022-08-09T04:02:29.104Z,19.50
2022-08-09T04:05:01.366Z,19.50
2022-08-09T04:07:53.528Z,19.50
2022-08-09T04:10:29.595Z,19.50
2022-08-09T04:13:03.938Z,19.50
2022-08-09T04:16:17.403Z,19.50
2022-08-09T04:18:21.662Z,19.50
2022-08-09T04:20:51.289Z,19.50
2022-08-09T04:23:24.355Z,19.40
2022-08-09T04:25:53.337Z,19.50
2022-08-09T04:28:30.810Z,19.50
2022-08-09T04:31:08.656Z,19.50
2022-08-09T04:33:47.629Z,19.40
2022-08-09T04:36:25.520Z,19.40
2022-08-09T04:38:54.422Z,19.40
2022-08-09T04:41:33.324Z,19.40
2022-08-09T04:44:05.705Z,19.30
2022-08-09T04:46:58.475Z,19.30
2022-08-09T04:49:47.707Z,19.40
2022-08-09T04:52:18.639Z,19.30
2022-08-09T04:54:52.259Z,19.30
2022-08-09T04:57:23.930Z,19.30
2022-08-09T04:59:55.993Z,19.30
2022-08-09T05:02:27.169Z,19.30
2022-08-09T05:04:55.036Z,19.30
2022-08-09T05:07:23.893Z,19.30
2022-08-09T05:09:51.521Z,19.30
2022-08-09T05:12:27.843Z,19.30
2022-08-09T05:14:57.290Z,19.30
2022-08-09T05:18:39.940Z,19.30
2022-08-09T05:20:14.452Z,19.30
2022-08-09T05:23:55.630Z,19.30
2022-08-09T05:25:32.535Z,19.30
2022-08-09T05:28:00.135Z,19.30
2022-08-09T05:30:30.083Z,19.20
2022-08-09T05:32:58.655Z,19.30
2022-08-09T05:35:26.266Z,19.20
2022-08-09T05:37:57.147Z,19.20
2022-08-09T05:40:31.820Z,19.20
2022-08-09T05:42:59.062Z,19.20
2022-08-09T05:45:26.507Z,19.10
2022-08-09T05:48:13.890Z,19.10
2022-08-09T05:50:51.078Z,19.10
2022-08-09T05:53:40.823Z,19.10
2022-08-09T05:56:23.108Z,19.10
2022-08-09T05:58:58.641Z,19.10
2022-08-09T06:01:33.685Z,19.10
2022-08-09T06:04:09.761Z,19.10
2022-08-09T06:06:43.795Z,19.10
2022-08-09T06:09:40.871Z,19.10
2022-08-09T06:12:04.898Z,19.10
2022-08-09T06:14:35.275Z,19.10
2022-08-09T06:17:09.209Z,19.20
2022-08-09T06:19:36.948Z,19.20
2022-08-09T06:22:04.883Z,19.30
2022-08-09T06:24:34.462Z,19.30
2022-08-09T06:27:02.771Z,19.40
2022-08-09T06:29:29.942Z,19.40
2022-08-09T06:32:17.262Z,19.40
2022-08-09T06:34:44.369Z,19.50
2022-08-09T06:37:13.674Z,19.50
2022-08-09T06:39:58.342Z,19.50
2022-08-09T06:42:30.804Z,19.50
2022-08-09T06:46:03.337Z,19.50
2022-08-09T06:48:00.796Z,19.60
2022-08-09T06:50:31.251Z,19.60
2022-08-09T06:53:00.853Z,19.70
2022-08-09T06:55:31.894Z,19.70
2022-08-09T06:58:03.222Z,19.80
2022-08-09T07:00:55.352Z,19.80
2022-08-09T07:03:27.629Z,19.90
2022-08-09T07:06:03.709Z,19.90
2022-08-09T07:08:37.278Z,20.00
2022-08-09T07:11:07.257Z,20.10
2022-08-09T07:13:45.085Z,20.20
2022-08-09T07:16:42.391Z,20.30
2022-08-09T07:19:15.545Z,20.30
2022-08-09T07:21:57.501Z,20.30
2022-08-09T07:24:40.185Z,20.40
2022-08-09T07:27:26.890Z,20.50
2022-08-09T07:30:04.164Z,20.60
2022-08-09T07:32:34.437Z,20.60
2022-08-09T07:35:08.123Z,20.70
2022-08-09T07:37:43.556Z,20.80
2022-08-09T07:40:25.200Z,20.80
2022-08-09T07:42:58.477Z,20.80
2022-08-09T07:45:39.342Z,20.90
2022-08-09T07:48:28.855Z,20.90
2022-08-09T07:51:09.758Z,21.00
2022-08-09T07:54:05.398Z,21.10
2022-08-09T07:56:49.766Z,21.10
2022-08-09T07:59:33.828Z,21.20
2022-08-09T08:02:10.413Z,21.20
2022-08-09T08:04:48.907Z,21.30
2022-08-09T08:08:44.668Z,21.40
2022-08-09T08:10:08.698Z,21.40
2022-08-09T08:12:45.515Z,21.50
2022-08-09T08:15:24.086Z,21.50
2022-08-09T08:17:58.018Z,21.60
2022-08-09T08:20:30.343Z,21.70
2022-08-09T08:23:03.658Z,21.80
2022-08-09T08:25:48.331Z,21.80
2022-08-09T08:28:18.216Z,21.90
2022-08-09T08:30:53.301Z,21.90
2022-08-09T08:33:27.745Z,22.00
2022-08-09T08:36:29.260Z,22.10
2022-08-09T08:39:01.101Z,22.10
2022-08-09T08:41:41.810Z,22.20
2022-08-09T08:44:27.228Z,22.20
2022-08-09T08:47:04.460Z,22.30
2022-08-09T08:49:48.611Z,22.30
2022-08-09T08:52:59.657Z,22.50
2022-08-09T08:55:10.408Z,22.50
2022-08-09T08:57:38.136Z,22.60
2022-08-09T09:00:17.198Z,22.70
2022-08-09T09:02:55.735Z,22.70
2022-08-09T09:05:57.843Z,22.70
2022-08-09T09:08:29.796Z,22.70
2022-08-09T09:11:04.375Z,22.80
2022-08-09T09:13:50.232Z,22.90
2022-08-09T09:16:31.204Z,22.90
2022-08-09T09:22:07.842Z,23.00
2022-08-09T09:24:49.545Z,23.20
2022-08-09T09:28:04.575Z,23.20
2022-08-09T09:30:38.002Z,23.30
2022-08-09T09:33:15.802Z,23.30
2022-08-09T09:36:01.770Z,23.30
2022-08-09T09:38:44.235Z,23.50
2022-08-09T09:41:28.027Z,23.50
2022-08-09T09:44:11.518Z,23.50
2022-08-09T09:46:50.550Z,23.50
2022-08-09T09:49:31.632Z,23.60
2022-08-09T09:52:16.266Z,23.70
2022-08-09T09:55:27.563Z,23.70
2022-08-09T09:58:17.046Z,23.70
2022-08-09T10:00:59.675Z,23.80
2022-08-09T10:03:44.502Z,23.80
2022-08-09T10:06:14.914Z,23.90
2022-08-09T10:08:54.915Z,24.00
2022-08-09T10:12:00.914Z,24.00
2022-08-09T10:14:33.546Z,24.10
2022-08-09T10:17:40.238Z,24.10
2022-08-09T10:20:04.573Z,24.20
2022-08-09T10:22:36.637Z,24.30
2022-08-09T10:25:11.778Z,24.30
2022-08-09T10:27:56.655Z,24.40
2022-08-09T10:34:04.558Z,24.40
2022-08-09T10:36:12.242Z,24.50
2022-08-09T10:38:57.228Z,24.50
2022-08-09T10:41:29.835Z,24.60
2022-08-09T10:44:02.432Z,24.60
2022-08-09T10:46:32.462Z,24.60
2022-08-09T10:49:19.853Z,24.70
2022-08-09T10:52:20.246Z,24.70
2022-08-09T10:54:53.199Z,24.80
2022-08-09T10:57:23.335Z,24.90
2022-08-09T10:59:57.470Z,25.00
2022-08-09T11:03:27.582Z,25.00
2022-08-09T11:05:30.199Z,25.00
2022-08-09T11:08:43.649Z,25.00
2022-08-09T11:11:19.398Z,25.10
2022-08-09T11:13:51.380Z,25.20
2022-08-09T11:16:38.231Z,25.20
2022-08-09T11:19:11.496Z,25.20
2022-08-09T11:22:05.393Z,25.30
2022-08-09T11:25:09.773Z,25.30
2022-08-09T11:28:04.367Z,25.30
2022-08-09T11:30:35.623Z,25.30
2022-08-09T11:33:05.875Z,25.40
2022-08-09T11:35:56.277Z,25.50
2022-08-09T11:38:33.189Z,25.50
2022-08-09T11:41:12.985Z,25.50
2022-08-09T11:43:49.214Z,25.60
2022-08-09T11:46:26.876Z,25.60
2022-08-09T11:49:05.440Z,25.70
2022-08-09T11:53:15.377Z,25.70
2022-08-09T11:55:52.595Z,25.80
2022-08-09T11:58:32.512Z,25.90
2022-08-09T12:01:37.874Z,25.90
2022-08-09T12:04:04.117Z,25.90
2022-08-09T12:06:35.149Z,25.90
2022-08-09T12:09:19.431Z,25.90
2022-08-09T12:12:03.375Z,25.90
2022-08-09T12:14:40.641Z,26.00
2022-08-09T12:17:34.549Z,26.10
2022-08-09T12:20:21.786Z,26.10
2022-08-09T12:22:59.260Z,26.20
2022-08-09T12:25:36.794Z,26.30
2022-08-09T12:29:14.480Z,26.30
2022-08-09T12:31:31.074Z,26.40
2022-08-09T12:34:17.310Z,26.50
2022-08-09T12:36:58.985Z,26.50
2022-08-09T12:39:43.397Z,26.60
2022-08-09T12:42:16.581Z,26.60
2022-08-09T12:44:46.352Z,26.70
2022-08-09T12:47:23.042Z,26.70
2022-08-09T12:50:09.507Z,26.70
2022-08-09T12:53:09.329Z,26.80
2022-08-09T12:56:15.072Z,26.80
2022-08-09T12:58:27.943Z,26.80
2022-08-09T13:00:58.968Z,26.90
2022-08-09T13:03:56.958Z,26.90
2022-08-09T13:06:35.591Z,27.00
2022-08-09T13:09:06.273Z,27.10
2022-08-09T13:11:39.423Z,27.10
2022-08-09T13:14:42.609Z,27.10
2022-08-09T13:17:08.392Z,27.20
2022-08-09T13:20:09.040Z,27.30
2022-08-09T13:22:36.784Z,27.30
2022-08-09T13:25:07.575Z,27.40
2022-08-09T13:27:54.472Z,27.40
2022-08-09T13:30:51.099Z,27.40
2022-08-09T13:33:22.449Z,27.50
2022-08-09T13:36:24.723Z,27.50
2022-08-09T13:38:56.687Z,27.50
2022-08-09T13:41:58.643Z,27.60
2022-08-09T13:44:13.620Z,27.60
2022-08-09T13:47:29.674Z,27.60
2022-08-09T13:49:56.133Z,27.60
2022-08-09T13:52:27.960Z,27.70
2022-08-09T13:54:59.763Z,27.70
2022-08-09T13:57:35.681Z,27.70
2022-08-09T14:00:09.209Z,27.70
2022-08-09T14:02:42.740Z,27.80
2022-08-09T14:05:58.820Z,27.80
2022-08-09T14:08:11.009Z,27.90
2022-08-09T14:10:49.298Z,27.90
2022-08-09T14:13:28.390Z,27.90
2022-08-09T14:16:14.194Z,28.00
2022-08-09T14:18:46.044Z,28.00
2022-08-09T14:21:22.590Z,28.10
2022-08-09T14:23:55.641Z,28.10
2022-08-09T14:26:32.720Z,28.10
2022-08-09T14:29:08.284Z,28.20
2022-08-09T14:31:55.621Z,28.20
2022-08-09T14:34:32.732Z,28.30
2022-08-09T14:37:02.288Z,28.30
2022-08-09T14:39:45.204Z,28.40
2022-08-09T14:42:30.922Z,28.40
2022-08-09T14:46:58.660Z,28.30
2022-08-09T14:47:59.728Z,28.40
2022-08-09T14:50:30.903Z,28.40
2022-08-09T14:53:03.152Z,28.50
2022-08-09T14:55:33.921Z,28.60
2022-08-09T14:58:04.813Z,28.60
2022-08-09T15:00:34.389Z,28.70
2022-08-09T15:03:08.813Z,28.80
2022-08-09T15:05:39.585Z,28.90
2022-08-09T15:08:16.490Z,28.90
2022-08-09T15:11:00.342Z,29.10
2022-08-09T15:13:29.865Z,29.10
2022-08-09T15:16:16.632Z,29.30
2022-08-09T15:18:43.952Z,29.30
2022-08-09T15:21:56.134Z,29.40
2022-08-09T15:24:12.727Z,29.50
2022-08-09T15:26:45.886Z,29.60
2022-08-09T15:30:48.517Z,29.60
2022-08-09T15:32:05.185Z,29.70
2022-08-09T15:34:53.353Z,29.70
2022-08-09T15:37:37.226Z,29.70
2022-08-09T15:40:20.003Z,29.80
2022-08-09T15:42:49.265Z,29.80
2022-08-09T15:45:21.670Z,29.90
2022-08-09T15:48:05.220Z,30.00
2022-08-09T15:50:39.103Z,30.00
2022-08-09T15:53:18.832Z,30.00
2022-08-09T15:56:21.394Z,30.10
2022-08-09T15:58:46.430Z,30.10
2022-08-09T16:01:16.067Z,30.20
2022-08-09T16:03:43.433Z,30.30
2022-08-09T16:06:29.501Z,30.40
2022-08-09T16:09:01.158Z,30.40
2022-08-09T16:11:33.075Z,30.40
2022-08-09T16:14:06.128Z,30.40
2022-08-09T16:16:38.105Z,30.50
2022-08-09T16:19:10.253Z,30.60
2022-08-09T16:21:42.665Z,30.60
2022-08-09T16:24:33.190Z,30.60
2022-08-09T16:27:02.257Z,30.60
2022-08-09T16:29:37.772Z,30.60
2022-08-09T16:32:34.006Z,30.60
2022-08-09T16:35:04.261Z,30.70
2022-08-09T16:37:54.527Z,30.70
2022-08-09T16:40:29.890Z,30.60
2022-08-09T16:43:08.370Z,30.70
2022-08-09T16:45:43.615Z,30.70
2022-08-09T16:48:41.365Z,30.70
2022-08-09T16:51:08.000Z,30.60
2022-08-09T16:54:02.328Z,30.60
2022-08-09T16:56:31.384Z,30.60
2022-08-09T16:59:01.251Z,30.60
2022-08-09T17:01:33.595Z,30.60
2022-08-09T17:04:05.485Z,30.60
2022-08-09T17:07:04.817Z,30.60
2022-08-09T17:09:45.498Z,30.60
2022-08-09T17:12:09.345Z,30.60
2022-08-09T17:14:37.246Z,30.60
2022-08-09T17:17:23.360Z,30.60
2022-08-09T17:20:28.260Z,30.60
2022-08-09T17:22:49.969Z,30.50
2022-08-09T17:25:19.777Z,30.50
2022-08-09T17:27:54.449Z,30.50
2022-08-09T17:30:26.063Z,30.60
2022-08-09T17:32:54.521Z,30.60
2022-08-09T17:35:25.246Z,30.60
2022-08-09T17:38:14.536Z,30.50
2022-08-09T17:40:47.185Z,30.50
2022-08-09T17:43:33.454Z,30.50
2022-08-09T17:46:06.786Z,30.50
2022-08-09T17:48:38.878Z,30.50
2022-08-09T17:51:18.223Z,30.50
2022-08-09T17:53:53.543Z,30.50
2022-08-09T17:56:29.276Z,30.50
2022-08-09T17:59:12.001Z,30.50
2022-08-09T18:02:07.804Z,30.50
2022-08-09T18:04:33.771Z,30.50
2022-08-09T18:07:07.587Z,30.60
2022-08-09T18:09:41.605Z,30.60
2022-08-09T18:12:18.229Z,30.60
2022-08-09T18:14:49.927Z,30.50
2022-08-09T18:17:27.590Z,30.50
2022-08-09T18:20:55.555Z,30.50
2022-08-09T18:22:56.296Z,30.50
2022-08-09T18:25:51.243Z,30.40
2022-08-09T18:28:21.448Z,30.40
2022-08-09T18:30:58.752Z,30.40
2022-08-09T18:33:28.937Z,30.40
2022-08-09T18:36:00.786Z,30.30
2022-08-09T18:38:28.537Z,30.30
2022-08-09T18:40:56.480Z,30.30
2022-08-09T18:43:25.719Z,30.20
2022-08-09T18:46:47.970Z,30.20
2022-08-09T18:48:42.272Z,30.10
2022-08-09T18:51:12.576Z,30.10
2022-08-09T18:54:00.666Z,30.00
2022-08-09T18:56:31.415Z,29.90
2022-08-09T18:59:01.364Z,29.80
2022-08-09T19:01:28.789Z,29.70
2022-08-09T19:04:13.157Z,29.70
2022-08-09T19:06:48.109Z,29.60
2022-08-09T19:09:34.185Z,29.50
2022-08-09T19:12:07.650Z,29.40
2022-08-09T19:14:37.486Z,29.40
2022-08-09T19:17:05.296Z,29.30
2022-08-09T19:19:41.568Z,29.20
2022-08-09T19:22:12.073Z,29.10
2022-08-09T19:25:11.289Z,29.00
2022-08-09T19:27:29.712Z,29.00
2022-08-09T19:30:22.454Z,28.90
2022-08-09T19:32:49.262Z,28.80
2022-08-09T19:35:21.243Z,28.70
2022-08-09T19:37:57.776Z,28.70
2022-08-09T19:40:34.336Z,28.60
2022-08-09T19:43:05.403Z,28.50
2022-08-09T19:45:39.188Z,28.40
2022-08-09T19:48:09.615Z,28.30
2022-08-09T19:50:51.006Z,28.30
2022-08-09T19:53:21.596Z,28.20
2022-08-09T19:56:02.536Z,28.20
2022-08-09T19:58:33.657Z,28.20
2022-08-09T20:01:03.176Z,28.10
2022-08-09T20:04:23.811Z,28.00
2022-08-09T20:06:23.527Z,28.00
2022-08-09T20:09:01.476Z,27.90
2022-08-09T20:11:42.963Z,27.90
2022-08-09T20:14:15.385Z,27.80
2022-08-09T20:16:53.528Z,27.70
2022-08-09T20:19:47.568Z,27.70
2022-08-09T20:22:14.591Z,27.60
2022-08-09T20:24:54.052Z,27.60
2022-08-09T20:27:22.077Z,27.60
2022-08-09T20:29:49.949Z,27.50
2022-08-09T20:32:31.176Z,27.40
2022-08-09T20:35:01.705Z,27.40
2022-08-09T20:37:37.367Z,27.30
2022-08-09T20:40:26.390Z,27.30
2022-08-09T20:43:12.305Z,27.20
2022-08-09T20:46:00.356Z,27.20
2022-08-09T20:48:33.014Z,27.10
2022-08-09T20:51:01.270Z,27.10
2022-08-09T20:53:36.199Z,27.00
2022-08-09T20:56:20.505Z,27.00
2022-08-09T20:58:50.749Z,26.90
2022-08-09T21:01:34.673Z,26.90
2022-08-09T21:05:51.969Z,26.80
2022-08-09T21:07:12.195Z,26.80
2022-08-09T21:09:57.013Z,26.70
2022-08-09T21:12:32.138Z,26.70
2022-08-09T21:15:02.573Z,26.70
2022-08-09T21:18:21.161Z,26.60
2022-08-09T21:20:25.819Z,26.50
2022-08-09T21:22:55.720Z,26.50
2022-08-09T21:25:44.356Z,26.40
2022-08-09T21:28:35.115Z,26.40
2022-08-09T21:31:17.926Z,26.30
2022-08-09T21:33:50.573Z,26.30
2022-08-09T21:36:20.224Z,26.20
2022-08-09T21:38:51.100Z,26.20
2022-08-09T21:42:05.033Z,26.20
2022-08-09T21:44:33.483Z,26.10
2022-08-09T21:47:09.490Z,26.10
2022-08-09T21:49:40.692Z,26.10
2022-08-09T21:52:17.049Z,26.00
2022-08-09T21:54:59.452Z,26.00
2022-08-09T21:57:39.071Z,26.00
2022-08-09T22:00:31.772Z,25.90
2022-08-09T22:03:19.382Z,25.90
2022-08-09T22:05:47.569Z,25.80
2022-08-09T22:08:19.018Z,25.70
2022-08-09T22:11:00.796Z,25.70
2022-08-09T22:13:42.263Z,25.60
2022-08-09T22:16:11.877Z,25.60
2022-08-09T22:18:43.944Z,25.50
2022-08-09T22:21:27.368Z,25.50
2022-08-09T22:24:16.601Z,25.40
2022-08-09T22:26:50.971Z,25.40
2022-08-09T22:29:24.075Z,25.30
2022-08-09T22:31:57.891Z,25.30
2022-08-09T22:34:28.718Z,25.20
2022-08-09T22:36:57.856Z,25.20
2022-08-09T22:39:55.838Z,25.20
2022-08-09T22:42:21.109Z,25.10
2022-08-09T22:45:00.030Z,25.00
2022-08-09T22:48:35.609Z,25.00
2022-08-09T22:50:26.720Z,25.00
2022-08-09T22:52:54.858Z,24.90
2022-08-09T22:55:39.479Z,24.90
2022-08-09T22:58:30.669Z,24.80
2022-08-09T23:01:07.687Z,24.80
2022-08-09T23:04:04.200Z,24.70
2022-08-09T23:06:32.622Z,24.70
2022-08-09T23:09:05.510Z,24.70
2022-08-09T23:11:35.305Z,24.60
2022-08-09T23:14:09.736Z,24.60
2022-08-09T23:16:37.729Z,24.60
2022-08-09T23:19:11.971Z,24.50
2022-08-09T23:21:39.570Z,24.50
2022-08-09T23:24:07.929Z,24.50
2022-08-09T23:26:39.353Z,24.40
2022-08-09T23:29:09.966Z,24.40
2022-08-09T23:31:39.606Z,24.30
2022-08-09T23:34:07.448Z,24.30
2022-08-09T23:36:35.617Z,24.30
2022-08-09T23:39:07.519Z,24.20
2022-08-09T23:41:37.521Z,24.10
2022-08-09T23:44:04.999Z,24.10
2022-08-09T23:46:32.560Z,24.10
2022-08-09T23:49:00.836Z,24.00
2022-08-09T23:51:30.678Z,24.00
2022-08-09T23:54:02.768Z,24.00
2022-08-09T23:56:53.493Z,23.90
2022-08-09T23:59:21.962Z,23.90
